x

Cape Lookout, Nc (clkn7) Weather Station

6:00am - Mon 20th Feb 2017 All times are EST. -5 hours from GMT.

  • Wind
    15mph, 17mph gusts
  • Air Temp 54°f
  • Sea Pressure 1019.3mb
  • Cape Lookout, Nc
  • Cape Lookout, Nc

More Historic Weather Station data

Upgrade to MSW Pro to gain access to the past 30 days of data for over 8000 Wavebouys and Weather Stations around the globe.

Join Pro

Comparision Forecast

View Surf forecast
   
Mon 02/20 6:00am 15 17 mph 1019.3mb 54f
5:00am 9 10 mph 1018.6mb 55f
4:00am 7 8 mph 1017.6mb 56f
3:00am 6 7 mph 1017.2mb 56f
2:00am 5
mph
1017.2mb 57f
1:00am 5 6 mph 1017.1mb 56f
12:00am 3
mph
1017.1mb 57f
Sun 02/19 11:00pm 6
mph
1017mb 58f
10:00pm 6
mph
1016.6mb 58f
9:00pm 6
mph
1016mb 59f
8:00pm 6
mph
1015.3mb 59f
7:00pm 3 5 mph 1014.7mb 59f
6:00pm  -  1 mph 1014.1mb 59f
5:00pm 2 5 mph 1013.7mb 62f
4:00pm 10 14 mph 1012.8mb 62f
3:00pm 10 14 mph 1012.7mb 64f
2:00pm 10 11 mph 1012.4mb 62f
1:00pm 9 13 mph 1012.3mb 61f
12:00pm 14 16 mph 1013.7mb 58f
11:00am 16 17 mph 1014.2mb 57f
10:00am 10 13 mph 1013.7mb 56f
9:00am 10 13 mph 1013mb 56f
8:00am 7 9 mph 1013.4mb 55f
7:00am 7 8 mph 1013mb 56f
6:00am 6 7 mph 1011.9mb 54f
5:00am 8 9 mph 1012.1mb 55f
4:00am 9 10 mph 1012.1mb 55f
3:00am 7 8 mph 1012.4mb 57f
2:00am 9 14 mph 1012.7mb 60f
1:00am 11 14 mph 1013.1mb 59f
12:00am 10 14 mph 1013.6mb 60f
Sat 02/18 11:00pm 10 14 mph 1013.7mb 60f
10:00pm 11 14 mph 1013.4mb 60f
9:00pm 13 16 mph 1013.5mb 60f
8:00pm 11 14 mph 1013.5mb 60f
7:00pm 14 18 mph 1013.7mb 60f
6:00pm 14 17 mph 1013.8mb 60f
5:00pm 14 17 mph 1013.8mb 60f
4:00pm 14 18 mph 1013.7mb 62f
3:00pm 13 20 mph 1013.6mb 62f
2:00pm 13 16 mph 1013.7mb 61f
1:00pm 11 16 mph 1014mb 61f
12:00pm 13 15 mph 1014.8mb 61f
11:00am 13 16 mph 1015.7mb 59f
10:00am 11 14 mph 1015.8mb 59f
9:00am 8 10 mph 1015.4mb 58f
8:00am 7 9 mph 1015.7mb 57f
7:00am 9 11 mph 1015.3mb 54f
6:00am 8 9 mph 1014.4mb 54f
5:00am 7 8 mph 1014.1mb 54f
4:00am 9 10 mph 1014.2mb 55f
3:00am 8 11 mph 1014.3mb 55f
2:00am 9 13 mph 1014.6mb 55f
1:00am 8 11 mph 1014.4mb 55f
12:00am 7 9 mph 1014.6mb 55f
Fri 02/17 11:00pm 7 9 mph 1014.7mb 54f
10:00pm 9 11 mph 1014.9mb 54f
9:00pm 10 13 mph 1014.9mb 54f
8:00pm 7 8 mph 1014.5mb 54f
7:00pm 7 8 mph 1014.2mb 55f
6:00pm 7 9 mph 1013.8mb 55f
5:00pm 8 10 mph 1013.6mb 56f
4:00pm 8 11 mph 1014.1mb 57f
3:00pm 9 11 mph 1014.8mb 56f
2:00pm 10 13 mph 1015.4mb 53f
1:00pm 6 9 mph 1015.9mb 52f
12:00pm 6 10 mph 1017mb 52f
11:00am 3 5 mph 1017.6mb 50f
10:00am 3 5 mph 1017.9mb 49f
9:00am 2 3 mph 1017.5mb 47f
8:00am 1
mph
1017.1mb 44f
7:00am 5
mph
1016.4mb 42f
6:00am 6 8 mph 1016.3mb 42f
5:00am 9 10 mph 1015.5mb 43f
4:00am 10 14 mph 1014.9mb 44f
3:00am 10 13 mph 1015.4mb 46f
2:00am 7 8 mph 1015.1mb 45f
1:00am 9 11 mph 1014.9mb 45f
12:00am 9 11 mph 1014.4mb 45f
Thu 02/16 11:00pm 7 9 mph 1014mb 46f
10:00pm 9 10 mph 1013.6mb 48f
9:00pm 9 10 mph 1013.3mb 48f
8:00pm 13
mph
1013.3mb 49f
7:00pm 14 15 mph 1012.4mb 49f
6:00pm 17 22 mph 1011.2mb 51f
5:00pm 17 23 mph 1010mb 52f
4:00pm 22 25 mph 1009.1mb 52f
3:00pm 29 31 mph 1008.4mb 52f
2:00pm 22 26 mph 1008.4mb 51f
1:00pm 25 30 mph 1008.4mb 50f